Página principal
METAR-TAF:

METAR-TAF

Aeroportos :

Aeroporto de Madrid-Barajas

Madrid, Espanha

latitude: 40-27N, longitude: 003-33W, altura: 609 m

Observação actual do tempo

O boletim foi feito há 20 minutos, às 10:30 UTC
Vento 3 kt de sul
Temperatura 28°C
Humidade 35%
Pressão 1022 hPa
Visibilidade 10 km ou mais
sem nuvens abaixo de 1500 metros e sem cumulonimbus

METAR: LEMD 231030Z 17003KT CAVOK 28/11 Q1022 NOSIG

Hora: 12:50 (10:50 UTC)

Previsão

O boletim foi feito há 3 horas e 6 minutos, às 07:44 UTC
Previsão válida de 23 às 07 UTC a 24 às 12 UTC
Vento 5 kt com direcção variável
Visibilidade 10 km ou mais
sem nuvens abaixo de 1500 metros e sem cumulonimbus
Probabilidade 30% :
Temporariamente
de 23 às 12 UTC a 23 às 19 UTC
Vento 8 kt de su-sudeste

TAF: LEMD 230744Z 2307/2412 VRB05KT CAVOK TX34/2316Z TN17/2406Z PROB30 TEMPO 2312/2319 16008KT

Observações e previsões do tempo de mais de 4000 aeroportos (mensagens METAR e TAF).

As estações disponíveis são os pontos amarelos e vermelhos sobre o mapa.

Mova o rato sobre o mapa para ver o nome da estação.

Depois clique no ponto para visualizar as observações e previsões meteorológicas.

Para alterar o mapa : clique nos botões verdes com uma cruz preta para aumentar o zoom; no botão verde com uma pitada de zoom; ou nas setas verdes para mapas adjacentes.


METAR-TAF: